createdAt,value
2023-04-13T00:03:02.611Z,8.56
2023-04-13T00:06:05.648Z,8.52
2023-04-13T00:09:08.638Z,8.47
2023-04-13T00:12:12.913Z,8.45
2023-04-13T00:15:17.637Z,8.53
2023-04-13T00:18:21.492Z,8.57
2023-04-13T00:21:26.072Z,8.54
2023-04-13T00:24:28.892Z,8.56
2023-04-13T00:27:31.646Z,8.59
2023-04-13T00:30:35.967Z,8.55
2023-04-13T00:33:42.787Z,8.52
2023-04-13T00:36:45.617Z,8.39
2023-04-13T00:39:52.164Z,8.38
2023-04-13T00:42:57.150Z,8.29
2023-04-13T00:46:01.301Z,8.35
2023-04-13T00:49:04.030Z,8.37
2023-04-13T00:52:10.236Z,8.32
2023-04-13T00:55:13.403Z,8.29
2023-04-13T00:58:16.257Z,8.30
2023-04-13T01:01:22.748Z,8.21
2023-04-13T01:04:31.295Z,8.26
2023-04-13T01:07:47.849Z,8.33
2023-04-13T01:10:54.887Z,8.24
2023-04-13T01:14:07.289Z,8.25
2023-04-13T01:17:15.670Z,8.28
2023-04-13T01:20:18.743Z,8.26
2023-04-13T01:23:44.260Z,8.20
2023-04-13T01:27:08.569Z,8.26
2023-04-13T01:30:11.635Z,8.33
2023-04-13T01:33:15.393Z,8.36
2023-04-13T01:36:18.294Z,8.34
2023-04-13T01:39:22.036Z,8.31
2023-04-13T01:42:34.396Z,8.26
2023-04-13T01:45:48.379Z,8.17
2023-04-13T01:48:54.958Z,8.22
2023-04-13T01:52:06.520Z,8.16
2023-04-13T01:55:12.720Z,8.09
2023-04-13T01:58:19.433Z,8.05
2023-04-13T02:01:30.192Z,8.04
2023-04-13T02:04:35.232Z,8.04
2023-04-13T02:07:40.830Z,8.01
2023-04-13T02:10:43.693Z,7.99
2023-04-13T02:13:46.649Z,7.92
2023-04-13T02:16:54.852Z,7.89
2023-04-13T02:19:58.215Z,7.88
2023-04-13T02:23:01.825Z,7.83
2023-04-13T02:26:07.221Z,7.76
2023-04-13T02:29:10.670Z,7.73
2023-04-13T02:32:13.981Z,7.80
2023-04-13T02:35:17.305Z,7.70
2023-04-13T02:38:20.322Z,7.68
2023-04-13T02:41:27.413Z,7.64
2023-04-13T02:44:30.639Z,7.66
2023-04-13T02:47:35.278Z,7.71
2023-04-13T02:50:39.645Z,7.63
2023-04-13T02:53:46.709Z,7.61
2023-04-13T02:56:49.684Z,7.59
2023-04-13T02:59:53.605Z,7.49
2023-04-13T03:02:59.194Z,7.46
2023-04-13T03:06:08.095Z,7.34
2023-04-13T03:09:21.930Z,7.34
2023-04-13T03:12:30.524Z,7.27
2023-04-13T03:15:33.261Z,7.19
2023-04-13T03:18:36.889Z,7.17
2023-04-13T03:21:41.818Z,7.12
2023-04-13T03:24:49.297Z,7.16
2023-04-13T03:27:59.334Z,7.18
2023-04-13T03:31:06.515Z,7.07
2023-04-13T03:34:12.635Z,7.10
2023-04-13T03:37:17.946Z,7.16
2023-04-13T03:40:21.184Z,7.15
2023-04-13T03:43:27.643Z,7.20
2023-04-13T03:46:41.637Z,7.25
2023-04-13T03:50:01.698Z,7.25
2023-04-13T03:53:06.663Z,7.30
2023-04-13T03:56:10.380Z,7.30
2023-04-13T03:59:14.291Z,7.37
2023-04-13T04:02:17.853Z,7.38
2023-04-13T04:05:22.203Z,7.37
2023-04-13T04:08:30.623Z,7.44
2023-04-13T04:11:38.106Z,7.46
2023-04-13T04:14:42.880Z,7.53
2023-04-13T04:17:53.514Z,7.56
2023-04-13T04:20:57.505Z,7.58
2023-04-13T04:24:03.260Z,7.66
2023-04-13T04:27:06.589Z,7.66
2023-04-13T04:30:11.221Z,7.68
2023-04-13T04:33:14.850Z,7.73
2023-04-13T04:36:18.825Z,7.79
2023-04-13T04:39:33.285Z,7.77
2023-04-13T04:42:45.665Z,7.74
2023-04-13T04:46:20.653Z,7.81
2023-04-13T04:49:29.093Z,7.74
2023-04-13T04:52:34.672Z,7.75
2023-04-13T04:55:40.165Z,7.74
2023-04-13T04:58:47.774Z,7.81
2023-04-13T05:01:53.793Z,7.85
2023-04-13T05:04:58.244Z,7.94
2023-04-13T05:08:01.936Z,7.95
2023-04-13T05:11:07.730Z,8.08
2023-04-13T05:14:12.457Z,8.19
2023-04-13T05:17:18.949Z,8.34
2023-04-13T05:20:22.295Z,8.49
2023-04-13T05:23:34.257Z,8.59
2023-04-13T05:26:43.319Z,8.72
2023-04-13T05:29:49.031Z,8.82
2023-04-13T05:32:57.267Z,9.00
2023-04-13T05:36:01.070Z,9.20
2023-04-13T05:39:05.182Z,9.42
2023-04-13T05:42:09.758Z,9.57
2023-04-13T05:45:18.469Z,9.75
2023-04-13T05:48:37.157Z,9.94
2023-04-13T05:51:44.280Z,10.10
2023-04-13T05:54:47.399Z,10.28
2023-04-13T05:57:51.904Z,10.42
2023-04-13T06:00:55.197Z,10.58
2023-04-13T06:04:06.385Z,10.80
2023-04-13T06:07:09.545Z,11.08
2023-04-13T06:10:17.289Z,11.36
2023-04-13T06:13:20.426Z,11.61
2023-04-13T06:16:24.588Z,11.79
2023-04-13T06:19:29.030Z,11.99
2023-04-13T06:22:32.359Z,12.24
2023-04-13T06:25:35.880Z,12.19
2023-04-13T06:28:40.141Z,12.45
2023-04-13T06:31:43.052Z,12.56
2023-04-13T06:34:51.614Z,12.85
2023-04-13T06:37:54.684Z,12.53
2023-04-13T06:41:07.430Z,12.47
2023-04-13T06:44:14.207Z,12.61
2023-04-13T06:47:43.527Z,12.41
2023-04-13T06:50:48.961Z,12.12
2023-04-13T06:53:53.919Z,12.17
2023-04-13T06:56:57.469Z,12.07
2023-04-13T07:00:00.617Z,11.94
2023-04-13T07:03:04.437Z,12.03
2023-04-13T07:06:09.120Z,12.11
2023-04-13T07:09:13.225Z,12.03
2023-04-13T07:12:16.527Z,12.30
2023-04-13T07:15:20.257Z,12.30
2023-04-13T07:18:23.107Z,12.05
2023-04-13T07:21:25.965Z,12.13
2023-04-13T07:24:34.443Z,11.85
2023-04-13T07:27:41.557Z,12.00
2023-04-13T07:30:45.197Z,11.95
2023-04-13T07:33:49.157Z,11.97
2023-04-13T07:36:57.812Z,12.03
2023-04-13T07:40:01.376Z,11.91
2023-04-13T07:43:08.890Z,11.89
2023-04-13T07:46:15.976Z,12.17
2023-04-13T07:49:19.071Z,12.11
2023-04-13T07:52:22.814Z,12.11
2023-04-13T07:55:29.678Z,11.97
2023-04-13T07:58:32.742Z,12.05
2023-04-13T08:01:35.930Z,12.18
2023-04-13T08:04:40.415Z,12.05
2023-04-13T08:07:46.906Z,12.32
2023-04-13T08:10:51.663Z,12.44
2023-04-13T08:13:55.196Z,12.45
2023-04-13T08:16:58.726Z,12.74
2023-04-13T08:20:01.775Z,12.76
2023-04-13T08:23:05.598Z,12.70
2023-04-13T08:26:09.426Z,12.68
2023-04-13T08:29:14.867Z,12.65
2023-04-13T08:32:17.983Z,12.64
2023-04-13T08:35:23.176Z,12.48
2023-04-13T08:38:25.945Z,12.76
2023-04-13T08:41:31.157Z,12.69
2023-04-13T08:44:40.588Z,12.84
2023-04-13T08:47:47.693Z,13.13
2023-04-13T08:50:52.727Z,13.58
2023-04-13T08:53:57.223Z,13.84
2023-04-13T08:57:04.866Z,13.90
2023-04-13T09:00:12.844Z,13.90
2023-04-13T09:03:21.321Z,13.50
2023-04-13T09:06:35.347Z,13.34
2023-04-13T09:09:43.271Z,13.17
2023-04-13T09:12:48.040Z,13.07
2023-04-13T09:15:51.019Z,12.91
2023-04-13T09:18:59.844Z,12.96
2023-04-13T09:22:14.251Z,12.92
2023-04-13T09:25:24.315Z,12.85
2023-04-13T09:28:27.437Z,12.77
2023-04-13T09:31:35.056Z,12.94
2023-04-13T09:34:37.881Z,12.80
2023-04-13T09:37:44.046Z,12.61
2023-04-13T09:40:50.033Z,12.37
2023-04-13T09:43:52.727Z,12.54
2023-04-13T09:47:07.222Z,12.39
2023-04-13T09:50:28.715Z,12.25
2023-04-13T09:53:47.018Z,12.22
2023-04-13T09:56:56.065Z,12.45
2023-04-13T10:00:01.979Z,12.62
2023-04-13T10:03:15.806Z,12.65
2023-04-13T10:06:18.850Z,12.63
2023-04-13T10:09:21.747Z,12.62
2023-04-13T10:12:25.473Z,12.66
2023-04-13T10:15:40.866Z,12.72
2023-04-13T10:18:49.294Z,12.68
2023-04-13T10:21:52.882Z,12.77
2023-04-13T10:24:55.670Z,12.69
2023-04-13T10:27:59.900Z,12.71
2023-04-13T10:31:06.198Z,12.91
2023-04-13T10:34:10.877Z,13.05
2023-04-13T10:37:19.890Z,13.21
2023-04-13T10:40:22.989Z,13.38
2023-04-13T10:43:30.327Z,13.40
2023-04-13T10:46:36.797Z,13.48
2023-04-13T10:49:39.899Z,13.38
2023-04-13T10:52:42.581Z,13.20
2023-04-13T10:55:45.524Z,13.03
2023-04-13T10:58:54.936Z,12.82
2023-04-13T11:01:58.909Z,12.94
2023-04-13T11:05:02.420Z,13.17
2023-04-13T11:08:06.168Z,13.24
2023-04-13T11:11:14.862Z,13.16
2023-04-13T11:14:22.000Z,13.13
2023-04-13T11:17:25.236Z,12.94
2023-04-13T11:20:38.754Z,12.99
2023-04-13T11:23:41.719Z,12.91
2023-04-13T11:26:44.883Z,12.72
2023-04-13T11:30:00.867Z,12.61
2023-04-13T11:33:04.151Z,12.56
2023-04-13T11:36:08.215Z,12.44
2023-04-13T11:39:11.233Z,12.52
2023-04-13T11:42:14.120Z,12.54
2023-04-13T11:45:18.996Z,12.49
2023-04-13T11:48:24.565Z,11.78
2023-04-13T11:51:27.395Z,11.27
2023-04-13T11:54:31.362Z,10.95
2023-04-13T11:57:35.094Z,10.81
2023-04-13T12:00:41.644Z,10.45
2023-04-13T12:03:57.578Z,10.50
2023-04-13T12:07:17.649Z,10.26
2023-04-13T12:10:40.528Z,10.21
2023-04-13T12:14:06.519Z,10.04
2023-04-13T12:20:21.001Z,9.56
2023-04-13T12:23:25.711Z,9.60
2023-04-13T12:27:16.087Z,9.42
2023-04-13T12:30:02.918Z,9.54
2023-04-13T12:33:05.692Z,9.47
2023-04-13T12:36:11.657Z,9.41
2023-04-13T12:39:14.781Z,9.25
2023-04-13T12:42:17.735Z,9.18
2023-04-13T12:45:20.526Z,9.10
2023-04-13T12:48:23.330Z,9.08
2023-04-13T12:51:27.025Z,9.14
2023-04-13T12:54:31.228Z,9.20
2023-04-13T12:57:33.921Z,8.96
2023-04-13T13:00:36.731Z,8.88
2023-04-13T13:03:39.591Z,9.01
2023-04-13T13:06:42.864Z,8.99
2023-04-13T13:09:45.744Z,8.78
2023-04-13T13:12:48.499Z,8.81
2023-04-13T13:15:52.167Z,8.85
2023-04-13T13:18:55.773Z,8.90
2023-04-13T13:22:00.498Z,8.97
2023-04-13T13:25:04.648Z,9.04
2023-04-13T13:28:14.841Z,9.09
2023-04-13T13:31:18.278Z,9.13
2023-04-13T13:34:21.302Z,9.17
2023-04-13T13:37:24.510Z,9.17
2023-04-13T13:40:27.310Z,9.21
2023-04-13T13:43:30.163Z,9.29
2023-04-13T13:46:33.396Z,9.24
2023-04-13T13:49:40.126Z,9.26
2023-04-13T13:52:51.826Z,9.26
2023-04-13T13:56:06.728Z,9.12
2023-04-13T13:59:09.716Z,9.13
2023-04-13T14:02:13.116Z,9.11
2023-04-13T14:05:16.149Z,9.13
2023-04-13T14:08:19.153Z,8.95
2023-04-13T14:11:22.828Z,9.11
2023-04-13T14:14:25.995Z,9.02
2023-04-13T14:17:28.981Z,8.99
2023-04-13T14:20:32.722Z,9.02
2023-04-13T14:23:37.824Z,8.89
2023-04-13T14:26:42.075Z,8.87
2023-04-13T14:29:47.033Z,8.79
2023-04-13T14:32:51.520Z,8.80
2023-04-13T14:35:54.433Z,8.70
2023-04-13T14:39:00.879Z,8.90
2023-04-13T14:42:04.115Z,8.89
2023-04-13T14:45:13.022Z,8.70
2023-04-13T14:48:15.887Z,8.73
2023-04-13T14:51:18.858Z,8.69
2023-04-13T14:54:21.764Z,8.74
2023-04-13T14:57:24.709Z,8.61
2023-04-13T15:00:39.321Z,8.72
2023-04-13T15:03:42.507Z,8.63
2023-04-13T15:06:47.929Z,8.62
2023-04-13T15:09:50.906Z,8.60
2023-04-13T15:12:53.612Z,8.75
2023-04-13T15:15:57.171Z,8.83
2023-04-13T15:19:00.230Z,9.00
2023-04-13T15:22:03.357Z,8.80
2023-04-13T15:25:06.779Z,8.90
2023-04-13T15:28:10.841Z,8.96
2023-04-13T15:31:13.825Z,9.05
2023-04-13T15:34:16.960Z,9.14
2023-04-13T15:37:19.846Z,9.22
2023-04-13T15:40:25.482Z,9.21
2023-04-13T15:43:28.508Z,9.29
2023-04-13T15:46:32.856Z,9.35
2023-04-13T15:49:36.047Z,9.28
2023-04-13T15:52:41.673Z,9.18
2023-04-13T15:55:44.689Z,9.09
2023-04-13T15:58:47.523Z,9.08
2023-04-13T16:01:50.485Z,9.05
2023-04-13T16:04:54.437Z,8.98
2023-04-13T16:07:57.636Z,8.94
2023-04-13T16:11:01.761Z,8.84
2023-04-13T16:14:07.785Z,8.79
2023-04-13T16:17:11.539Z,8.77
2023-04-13T16:20:14.568Z,8.82
2023-04-13T16:23:18.993Z,8.96
2023-04-13T16:26:22.689Z,9.03
2023-04-13T16:29:27.003Z,9.08
2023-04-13T16:32:29.755Z,9.18
2023-04-13T16:35:32.724Z,9.21
2023-04-13T16:38:35.701Z,9.21
2023-04-13T16:41:38.529Z,8.99
2023-04-13T16:44:41.389Z,8.85
2023-04-13T16:47:44.336Z,8.86
2023-04-13T16:50:47.369Z,8.78
2023-04-13T16:53:50.537Z,8.74
2023-04-13T16:56:53.887Z,8.62
2023-04-13T17:00:00.647Z,8.51
2023-04-13T17:03:04.028Z,8.54
2023-04-13T17:06:07.652Z,8.53
2023-04-13T17:09:10.509Z,8.61
2023-04-13T17:12:13.693Z,8.53
2023-04-13T17:15:16.655Z,8.49
2023-04-13T17:18:19.829Z,8.52
2023-04-13T17:21:23.543Z,8.55
2023-04-13T17:24:26.404Z,8.56
2023-04-13T17:27:29.277Z,8.55
2023-04-13T17:30:32.575Z,8.58
2023-04-13T17:33:38.266Z,8.48
2023-04-13T17:36:41.388Z,8.54
2023-04-13T17:39:48.221Z,8.52
2023-04-13T17:42:50.990Z,8.55
2023-04-13T17:45:54.013Z,8.48
2023-04-13T17:48:57.404Z,8.53
2023-04-13T17:52:01.080Z,8.61
2023-04-13T17:55:04.357Z,8.58
2023-04-13T17:58:07.439Z,8.64
2023-04-13T18:01:11.768Z,8.67
2023-04-13T18:04:15.292Z,8.68
2023-04-13T18:07:18.778Z,8.61
2023-04-13T18:10:21.622Z,8.66
2023-04-13T18:13:24.893Z,8.64
2023-04-13T18:16:28.350Z,8.66
2023-04-13T18:19:32.952Z,8.70
2023-04-13T18:22:35.994Z,8.71
2023-04-13T18:25:39.109Z,8.74
2023-04-13T18:28:42.219Z,8.77
2023-04-13T18:31:45.072Z,8.74
2023-04-13T18:34:48.016Z,8.76
2023-04-13T18:37:50.961Z,8.73
2023-04-13T18:40:53.905Z,8.75
2023-04-13T18:43:56.723Z,8.78
2023-04-13T18:46:59.660Z,8.80
2023-04-13T18:50:02.604Z,8.79
2023-04-13T18:53:06.213Z,8.79
2023-04-13T18:56:09.112Z,8.86
2023-04-13T18:59:12.232Z,8.90
2023-04-13T19:02:15.627Z,8.93
2023-04-13T19:05:19.519Z,8.95
2023-04-13T19:08:22.271Z,8.97
2023-04-13T19:11:28.005Z,8.95
2023-04-13T19:14:30.986Z,8.94
2023-04-13T19:17:34.566Z,8.90
2023-04-13T19:20:37.356Z,8.85
2023-04-13T19:23:40.593Z,8.85
2023-04-13T19:26:44.027Z,8.87
2023-04-13T19:29:47.078Z,8.85
2023-04-13T19:32:50.656Z,8.85
2023-04-13T19:35:53.732Z,8.86
2023-04-13T19:38:56.813Z,8.84
2023-04-13T19:41:59.535Z,8.83
2023-04-13T19:45:03.457Z,8.89
2023-04-13T19:48:06.968Z,8.95
2023-04-13T19:51:09.903Z,8.93
2023-04-13T19:54:12.789Z,8.87
2023-04-13T19:57:15.564Z,8.87
2023-04-13T20:00:19.432Z,8.90
2023-04-13T20:03:22.312Z,8.85
2023-04-13T20:06:25.894Z,8.75
2023-04-13T20:09:29.257Z,8.77
2023-04-13T20:12:32.111Z,8.81
2023-04-13T20:15:35.677Z,8.78
2023-04-13T20:18:38.746Z,8.79
2023-04-13T20:21:42.385Z,8.77
2023-04-13T20:24:45.231Z,8.77
2023-04-13T20:27:48.057Z,8.80
2023-04-13T20:30:50.957Z,8.77
2023-04-13T20:33:53.612Z,8.77
2023-04-13T20:36:59.280Z,8.73
2023-04-13T20:40:03.133Z,8.75
2023-04-13T20:43:06.545Z,8.81
2023-04-13T20:46:10.395Z,8.76
2023-04-13T20:49:13.946Z,8.74
2023-04-13T20:52:18.496Z,8.78
2023-04-13T20:55:24.950Z,8.77
2023-04-13T20:58:28.942Z,8.74
2023-04-13T21:01:32.380Z,8.76
2023-04-13T21:04:35.132Z,8.66
2023-04-13T21:07:38.413Z,8.55
2023-04-13T21:10:41.260Z,8.55
2023-04-13T21:13:44.223Z,8.55
2023-04-13T21:16:46.978Z,8.59
2023-04-13T21:19:49.841Z,8.58
2023-04-13T21:22:52.635Z,8.60
2023-04-13T21:25:55.475Z,8.65
2023-04-13T21:28:58.138Z,8.62
2023-04-13T21:32:02.592Z,8.65
2023-04-13T21:35:06.074Z,8.59
2023-04-13T21:38:09.162Z,8.60
2023-04-13T21:41:19.884Z,8.48
2023-04-13T21:44:29.960Z,8.44
2023-04-13T21:47:35.354Z,8.47
2023-04-13T21:50:38.060Z,8.45
2023-04-13T21:53:40.793Z,8.40
2023-04-13T21:56:43.592Z,8.39
2023-04-13T21:59:46.289Z,8.38
2023-04-13T22:02:49.772Z,8.35
2023-04-13T22:05:52.509Z,8.38
2023-04-13T22:08:55.378Z,8.46
2023-04-13T22:11:58.280Z,8.45
2023-04-13T22:15:00.959Z,8.43
2023-04-13T22:18:04.017Z,8.41
2023-04-13T22:21:07.296Z,8.45
2023-04-13T22:24:10.030Z,8.49
2023-04-13T22:27:12.738Z,8.50
2023-04-13T22:30:15.613Z,8.49
2023-04-13T22:33:19.074Z,8.56
2023-04-13T22:36:21.948Z,8.59
2023-04-13T22:39:24.554Z,8.48
2023-04-13T22:42:27.808Z,8.45
2023-04-13T22:45:30.532Z,8.42
2023-04-13T22:48:33.246Z,8.44
2023-04-13T22:51:42.177Z,8.46
2023-04-13T22:54:46.668Z,8.43
2023-04-13T22:57:49.379Z,8.41
2023-04-13T23:00:52.349Z,8.49
2023-04-13T23:03:55.938Z,8.46
2023-04-13T23:06:58.866Z,8.46
2023-04-13T23:10:01.533Z,8.38
2023-04-13T23:13:05.018Z,8.41
2023-04-13T23:16:08.451Z,8.50
2023-04-13T23:19:11.203Z,8.57
2023-04-13T23:22:14.006Z,8.56
2023-04-13T23:25:16.742Z,8.53
2023-04-13T23:28:19.467Z,8.31
2023-04-13T23:31:22.278Z,8.44
2023-04-13T23:34:25.011Z,8.52
2023-04-13T23:37:27.882Z,8.56
2023-04-13T23:40:30.997Z,8.55
2023-04-13T23:43:33.767Z,8.55
2023-04-13T23:46:36.712Z,8.58
2023-04-13T23:49:39.419Z,8.51
2023-04-13T23:52:42.589Z,8.44
2023-04-13T23:55:45.258Z,8.37
2023-04-13T23:58:47.985Z,8.18
